• Join FlightAware (Why Join?)
  • Login
  • US Flag 
04:52AM EDT


 

Airport Tracker/Info


-or-


 

Live Flight TrackerFlight Track Log ✈ DAL3698 ✈ 01-Nov-2013 ✈ KMSP - KLSE

Flight Track Log - Related Links

Times and Time Zones

All times are in EDT time to prevent confusion due to time zone crossing. See the DAL3698 flight status page for this flight to view local times or setup timezone preferences in your user account.

Time Position Orientation Groundspeed Altitude Reporting Facility
EDT Latitude Longitude Course Direction KTS MPH feet Rate Location/Type
08:22PM 44.8833 -93.2833 207° Southwest 189 217 3,200  Level Minneapolis TRACON
08:23PM 44.8211 -93.3283 207° Southwest 257 296 7,000 2,760 Climbing Minneapolis Center
08:24PM 44.7964 -93.2203 108° East 292 336 9,900 1,920 Climbing Minneapolis Center
08:25PM 44.7442 -93.1386 132° Southeast 325 374 11,000 480 Climbing Minneapolis Center
08:26PM 44.6675 -93.0050 129° Southeast 359 413 11,000  Level Minneapolis Center
08:27PM 44.6053 -92.8997 130° Southeast 352 405 11,000  Level Minneapolis Center
08:28PM 44.5436 -92.7942 129° Southeast 350 403 11,000  Level Minneapolis Center
08:29PM 44.4814 -92.6894 130° Southeast 351 404 11,000  Level Minneapolis Center
08:30PM 44.4194 -92.5847 130° Southeast 351 404 11,000  Level Minneapolis Center
08:31PM 44.3619 -92.4753 126° Southeast 349 402 11,000  Level Minneapolis Center
08:32PM 44.3169 -92.3572 118° Southeast 346 398 11,000  Level Minneapolis Center
08:33PM 44.2614 -92.2172 119° Southeast 345 397 11,000  Level Minneapolis Center
08:34PM 44.2147 -92.1000 119° Southeast 347 399 11,000 -300 Level Minneapolis Center
08:36PM 44.1694 -91.9836 118° Southeast 345 397 10,500 -1,020 Descending Minneapolis Center
08:37PM 44.1275 -91.8761 118° Southeast 312 359 9,000 -1,500 Descending Minneapolis Center
08:38PM 44.0844 -91.7678 119° Southeast 302 348 7,500 -1,440 Descending Minneapolis Center
08:39PM 44.0458 -91.6697 119° Southeast 293 337 6,100 -1,260 Descending Minneapolis Center
08:40PM 44.0047 -91.5672 119° Southeast 289 333 5,000 -960 Descending Minneapolis Center
08:41PM 43.9639 -91.4681 120° Southeast 287 330 4,200 -720 Descending Minneapolis Center
08:42PM 43.9281 -91.3783 119° Southeast 254 292 3,600 -480 Descending Minneapolis Center
08:43PM 43.8800 -91.3308 145° Southeast 223 257 3,300 -480 Descending Minneapolis Center
08:44PM 43.8278 -91.3200 171° South 221 254 2,700 -600 Descending Minneapolis Center
08:46PM 43.8667 -91.2500 105° East  Level FlightAware Approximate
08:53PM 43.8793 -91.2566 105° East  Level Estimated